Flight Track Log - Related Links

Times and Time Zones

All times are in EDT time to prevent confusion due to time zone crossing. See the GJS3710 flight status page for this flight to view local times or setup timezone preferences in your user account.

Time Position Orientation Groundspeed Altitude Reporting Facility
EDT Latitude Longitude Course Direction KTS MPH feet Rate Location/Type
Mon 10:06:47 AM 42.0333 -87.9167 90° East 227 261 2,600  Level Chicago TRACON
Mon 10:07:42 AM 42.0500 -87.8333 75° East 276 318 4,900 2,505 Climbing Chicago TRACON
Mon 10:09:49 AM 42.0636 -87.6233 85° East 290 334 10,200 2,603 Climbing Chicago Center
Mon 10:10:51 AM 42.0342 -87.4906 107° East 307 353 13,100 2,468 Climbing Chicago Center
Mon 10:11:00 AM 41.9343 -87.1461 96° East  Level FlightAware Approximate
Mon 10:11:53 AM 42.0117 -87.3800 105° East 308 354 15,300  Level Chicago Center
Mon 10:12:00 AM 41.9333 -86.9951 90° East  Level FlightAware Approximate
Mon 10:12:55 AM 41.9864 -87.2636 106° East 319 367 17,400  Level Chicago Center
Mon 10:13:57 AM 41.9614 -87.1442 106° East 328 377 19,000 1,632 Climbing Chicago Center
Mon 10:15:00 AM 41.9461 -87.0172 99° East 340 391 20,800 1,632 Climbing Chicago Center
Mon 10:16:02 AM 41.9469 -86.8822 89° East 357 411 22,400 1,742 Climbing Chicago Center
Mon 10:17:04 AM 41.9492 -86.7197 89° East 363 418 24,400 1,742 Climbing Chicago Center
Mon 10:18:06 AM 41.9514 -86.5739 89° East 374 430 26,000 1,065 Climbing Chicago Center
Mon 10:19:08 AM 41.9511 -86.4256 90° East 391 450 26,600 532 Climbing Chicago Center
Mon 10:20:10 AM 41.9542 -86.2647 88° East 424 488 27,100 581 Climbing Chicago Center
Mon 10:21:12 AM 41.9447 -86.0958 94° East 445 512 27,800 774 Climbing Chicago Center
Mon 10:22:14 AM 41.9289 -85.9217 97° East 463 533 28,700 871 Climbing Chicago Center
Mon 10:23:16 AM 41.9119 -85.7469 97° East 470 541 29,600 823 Climbing Chicago Center
Mon 10:24:18 AM 41.8961 -85.5700 97° East 473 544 30,400 919 Climbing Chicago Center
Mon 10:25:20 AM 41.8756 -85.3542 97° East 477 549 31,500 1,016 Climbing Chicago Center
Mon 10:26:22 AM 41.8572 -85.1761 98° East 476 548 32,500 1,016 Climbing Chicago Center
Mon 10:27:24 AM 41.8397 -85.0011 98° East 473 544 33,600 1,016 Climbing Chicago Center
Mon 10:28:26 AM 41.8200 -84.8269 99° East 474 545 34,600 1,008 Climbing Chicago Center
Mon 10:29:29 AM 41.8028 -84.6575 98° East 462 532 35,700 1,071 Climbing Chicago Center
Mon 10:30:18 AM 41.7794 -84.5264 103° East 454 522 36,600 936 Climbing Cleveland Center
Mon 10:31:18 AM 41.7453 -84.3683 106° East 446 513 37,400 700 Climbing Cleveland Center
Mon 10:32:18 AM 41.7092 -84.1967 106° East 441 507 38,000 550 Climbing Cleveland Center
Mon 10:33:18 AM 41.6764 -84.0417 106° East 435 501 38,500 500 Climbing Cleveland Center
Mon 10:34:18 AM 41.6436 -83.8817 105° East 435 501 39,000 250 Climbing Cleveland Center
Mon 10:35:18 AM 41.6125 -83.7244 105° East 440 506 39,000  Level Cleveland Center
Mon 10:36:18 AM 41.5772 -83.5644 106° East 440 506 39,000  Level Cleveland Center
Mon 10:37:18 AM 41.5439 -83.3992 105° East 445 512 39,000  Level Cleveland Center
Mon 10:38:18 AM 41.5103 -83.2369 105° East 445 512 39,000  Level Cleveland Center
Mon 10:39:18 AM 41.4803 -83.0886 105° East 453 521 39,000  Level Cleveland Center
Mon 10:40:18 AM 41.4439 -82.9294 107° East 453 521 39,000  Level Cleveland Center
Mon 10:41:18 AM 41.4075 -82.7619 106° East 458 527 39,000  Level Cleveland Center
Mon 10:42:18 AM 41.3731 -82.6003 106° East 458 527 39,000  Level Cleveland Center
Mon 10:43:18 AM 41.3383 -82.4333 105° East 463 533 39,000  Level Cleveland Center
Mon 10:44:18 AM 41.3014 -82.2719 107° East 455 524 39,000  Level Cleveland Center
Mon 10:45:18 AM 41.2639 -82.1108 107° East 460 529 39,000  Level Cleveland Center
Mon 10:46:18 AM 41.2244 -81.9331 106° East 460 529 39,000  Level Cleveland Center
Mon 10:47:18 AM 41.1886 -81.7778 107° East 470 541 39,000  Level Cleveland Center
Mon 10:48:18 AM 41.1486 -81.6089 107° East 475 547 39,000  Level Cleveland Center
Mon 10:49:18 AM 41.1144 -81.4431 105° East 475 547 39,000  Level Cleveland Center
Mon 10:50:18 AM 41.0761 -81.2772 107° East 475 547 39,000  Level Cleveland Center
Mon 10:51:18 AM 41.0375 -81.1117 107° East 475 547 39,000  Level Cleveland Center
Mon 10:52:18 AM 40.9942 -80.9269 107° East 480 552 39,000  Level Cleveland Center
Mon 10:53:18 AM 40.9531 -80.7564 108° East 480 552 39,000  Level Cleveland Center
Mon 10:54:18 AM 40.9136 -80.5914 108° East 475 547 39,000  Level Cleveland Center
Mon 10:55:18 AM 40.8739 -80.4183 107° East 480 552 39,000  Level Cleveland Center
Mon 10:56:18 AM 40.8358 -80.2703 109° East 480 552 39,000  Level Cleveland Center
Mon 10:57:18 AM 40.7875 -80.1086 112° Southeast 480 552 39,000  Level Cleveland Center
Mon 10:58:18 AM 40.7200 -79.9311 117° Southeast 480 552 39,000  Level Cleveland Center
Mon 10:59:18 AM 40.6625 -79.7728 116° Southeast 480 552 39,000  Level Cleveland Center
Mon 11:00:18 AM 40.6031 -79.6122 116° Southeast 485 558 39,000  Level Cleveland Center
Mon 11:01:18 AM 40.5472 -79.4519 115° Southeast 485 558 39,000 -600 Level Cleveland Center
Mon 11:03:18 AM 40.5036 -79.0894 99° East 490 564 37,200 -1,300 Descending Cleveland Center
Mon 11:04:18 AM 40.4864 -78.9042 97° East 501 577 35,100 -2,150 Descending Cleveland Center
Mon 11:05:18 AM 40.4708 -78.7161 96° East 506 582 32,900 -2,150 Descending Cleveland Center
Mon 11:06:18 AM 40.4533 -78.5394 97° East 501 577 30,800 -2,050 Descending Cleveland Center
Mon 11:07:18 AM 40.4375 -78.3625 97° East 495 570 28,800 -1,758 Descending Cleveland Center
Mon 11:09:36 AM 40.3986 -77.9667 97° East 472 543 25,000 -1,152 Descending New York Center
Mon 11:10:36 AM 40.3811 -77.8067 98° East 458 527 25,000 -450 Level New York Center
Mon 11:11:36 AM 40.3572 -77.6489 101° East 451 519 24,100 -1,000 Descending New York Center
Mon 11:12:36 AM 40.3350 -77.5242 103° East 446 513 23,000 -1,350 Descending New York Center
Mon 11:13:36 AM 40.3014 -77.3439 104° East 432 497 21,400 -1,450 Descending New York Center
Mon 11:14:36 AM 40.2797 -77.2111 102° East 418 481 20,100 -1,350 Descending New York Center
Mon 11:15:36 AM 40.2558 -77.0703 102° East 404 465 18,700 -1,300 Descending New York Center
Mon 11:16:36 AM 40.2308 -76.9156 102° East 392 451 17,500 -850 Descending New York Center
Mon 11:17:36 AM 40.2064 -76.7803 103° East 392 451 17,000 -250 Descending New York Center
Mon 11:18:36 AM 40.1836 -76.6533 103° East 392 451 17,000  Level New York Center
Mon 11:19:36 AM 40.1592 -76.5128 103° East 386 444 17,000 -1,000 Level New York Center
Mon 11:20:36 AM 40.1331 -76.3639 103° East 386 444 15,000 -2,150 Descending New York Center
Mon 11:21:36 AM 40.1161 -76.2347 100° East 373 429 12,700 -1,650 Descending New York Center
Mon 11:22:36 AM 40.1086 -76.1256 95° East 349 402 11,700 -1,300 Descending New York Center
Mon 11:23:36 AM 40.1011 -76.0139 95° East 321 369 10,100 -1,800 Descending New York Center
Mon 11:24:36 AM 40.0917 -75.8964 96° East 301 346 8,100 -1,750 Descending New York Center
Mon 11:25:36 AM 40.0833 -75.8036 97° East 293 337 6,600 -1,050 Descending New York Center
Mon 11:26:36 AM 40.0775 -75.6919 94° East 288 331 6,000 -300 Descending New York Center
Mon 11:27:36 AM 40.0731 -75.6019 94° East 283 326 6,000  Level New York Center
Mon 11:28:36 AM 40.0669 -75.4906 94° East 278 320 6,000  Level New York Center
Mon 11:29:36 AM 40.0625 -75.3953 93° East 278 320 6,000  Level New York Center
Mon 11:30:14 AM 40.0667 -75.3167 86° East 286 329 6,000  Level Philadelphia TRACON
Mon 11:31:14 AM 40.0500 -75.2167 102° East 269 310 6,000 52 Level Philadelphia TRACON
Mon 11:32:09 AM 40.0333 -75.1500 108° East 215 247 6,100 -574 Climbing Philadelphia TRACON
Mon 11:33:09 AM 40.0167 -75.0833 108° East 185 213 4,900 -1,350 Descending Philadelphia TRACON
Mon 11:34:09 AM 40.0000 -75.0167 108° East 198 228 3,400 -905 Descending Philadelphia TRACON
Mon 11:35:15 AM 39.9500 -74.9833 153° Southeast 185 213 3,000 -192 Descending Philadelphia TRACON
Mon 11:36:14 AM 39.9167 -75.0000 201° Southwest 173 199 3,000 -150 Level Philadelphia TRACON
Mon 11:37:15 AM 39.9000 -75.0667 252° West 169 194 2,700 -645 Descending Philadelphia TRACON
Mon 11:38:15 AM 39.9000 -75.1167 270° West 164 189 1,700 -850 Descending Philadelphia TRACON
Mon 11:39:15 AM 39.8833 -75.1667 247° West 131 151 1,000 -700 Descending Philadelphia TRACON
Mon 11:40:15 AM 39.8833 -75.2167 270° West 131 151 300 -700 Descending Philadelphia TRACON
Mon 11:42:00 AM 39.8667 -75.2333 247° West  Level FlightAware Approximate

Login

Don't have an account? Register now (free) for customized features, flight alerts, and more!